Time;durP1;ratioP1;P1;durP2;ratioP2;P2;SDS_P1;SDS_P2;PMS_P1;PMS_P2;Temp;Humidity;BMP_temperature;BMP_pressure;BME280_temperature;BME280_humidity;BME280_pressure;Samples;Min_cycle;Max_cycle;Signal;HPM_P1;HPM_P2
2021/07/11 00:02:00;;;;;;;7.95;7.35;;;17.20;99.90;;;18.19;100.00;97937.84;5176499;28;20248;-79
2021/07/11 00:04:33;;;;;;;7.88;7.28;;;17.30;99.90;;;18.19;100.00;97935.28;5184818;28;20202;-78
2021/07/11 00:07:07;;;;;;;7.80;7.10;;;17.30;99.90;;;18.17;100.00;97939.56;5187900;28;20214;-78
2021/07/11 00:09:40;;;;;;;7.72;7.05;;;17.30;99.90;;;18.14;100.00;97943.75;5187448;28;20198;-79
2021/07/11 00:12:13;;;;;;;7.13;6.53;;;17.20;99.90;;;18.12;100.00;97945.44;5187112;28;20199;-79
2021/07/11 00:14:46;;;;;;;6.38;5.88;;;17.10;99.90;;;18.12;100.00;97945.44;5187227;28;20205;-79
2021/07/11 00:17:19;;;;;;;6.47;5.97;;;17.20;99.90;;;18.11;100.00;97941.94;5186905;28;20658;-78
2021/07/11 00:19:52;;;;;;;5.95;5.55;;;17.10;99.90;;;18.06;100.00;97940.09;5187365;28;20222;-78
2021/07/11 00:22:27;;;;;;;6.63;6.13;;;17.10;99.90;;;18.01;100.00;97943.38;5187167;28;20721;-79
2021/07/11 00:25:00;;;;;;;6.80;6.25;;;17.10;99.90;;;17.99;100.00;97937.28;5187036;28;20229;-79
2021/07/11 00:27:33;;;;;;;7.03;6.53;;;17.10;99.90;;;18.00;100.00;97938.19;5182850;28;20205;-79
2021/07/11 00:30:08;;;;;;;7.75;6.63;;;17.10;99.90;;;18.00;100.00;97936.47;5186443;28;20221;-79
2021/07/11 00:32:42;;;;;;;7.13;6.32;;;17.10;99.90;;;17.96;100.00;97934.63;5186945;28;20206;-78
2021/07/11 00:35:15;;;;;;;6.68;6.05;;;17.00;99.90;;;17.89;100.00;97927.53;5179798;28;20211;-78
2021/07/11 00:37:50;;;;;;;6.00;5.50;;;17.00;99.90;;;17.89;100.00;97930.13;5183913;28;20661;-79
2021/07/11 00:40:23;;;;;;;6.13;5.63;;;17.00;99.90;;;17.86;100.00;97924.84;5187460;28;20217;-78
2021/07/11 00:42:56;;;;;;;6.05;5.45;;;16.90;99.90;;;17.78;100.00;97923.75;5186562;28;20205;-78
2021/07/11 00:45:30;;;;;;;6.00;5.60;;;16.80;99.90;;;17.77;100.00;97932.31;5186612;28;20219;-80
2021/07/11 00:48:03;;;;;;;5.90;5.43;;;16.80;99.90;;;17.78;100.00;97934.09;5186235;28;20199;-79
2021/07/11 00:50:37;;;;;;;5.38;5.07;;;16.90;99.90;;;17.75;100.00;97934.84;5186404;28;20201;-79
2021/07/11 00:53:11;;;;;;;6.65;6.05;;;16.80;99.90;;;17.69;100.00;97936.38;5187241;28;20216;-79
2021/07/11 00:55:45;;;;;;;6.55;5.32;;;16.70;99.90;;;17.67;100.00;97931.13;5187412;28;20217;-78
2021/07/11 00:58:18;;;;;;;5.90;5.40;;;16.70;99.90;;;17.65;100.00;97939.66;5187678;28;20202;-79
2021/07/11 01:00:56;;;;;;;5.78;5.28;;;16.70;99.90;;;17.59;100.00;97942.94;5186995;28;20215;-79
2021/07/11 01:03:33;;;;;;;5.60;5.03;;;16.70;99.90;;;17.53;100.00;97933.28;5179108;28;20209;-80
2021/07/11 01:06:07;;;;;;;5.63;5.13;;;16.60;99.90;;;17.47;100.00;97938.28;5184600;28;20320;-79
2021/07/11 01:08:49;;;;;;;4.78;4.47;;;16.50;99.90;;;17.40;100.00;97936.34;5185519;28;20205;-80
2021/07/11 01:11:25;;;;;;;5.40;4.63;;;16.40;99.90;;;17.32;100.00;97940.41;5186369;28;20198;-78
2021/07/11 01:13:59;;;;;;;5.63;5.22;;;16.30;99.90;;;17.28;100.00;97951.44;5186127;28;20197;-79
2021/07/11 01:16:34;;;;;;;5.22;4.82;;;16.30;99.90;;;17.28;100.00;97949.75;5177558;28;20222;-77
2021/07/11 01:19:25;;;;;;;4.93;4.60;;;16.30;99.90;;;17.16;100.00;97951.06;5186187;28;20195;-77
2021/07/11 01:22:04;;;;;;;5.65;5.25;;;16.30;99.90;;;17.04;100.00;97943.78;5186466;28;20205;-78
2021/07/11 01:24:50;;;;;;;5.50;5.00;;;16.20;99.90;;;16.95;100.00;97941.78;5178548;28;20195;-78
2021/07/11 01:27:25;;;;;;;5.03;4.63;;;16.20;99.90;;;16.89;100.00;97951.91;5184607;28;20205;-79
2021/07/11 01:29:59;;;;;;;5.20;4.70;;;16.10;99.90;;;16.86;100.00;97946.63;5179445;28;20199;-79
2021/07/11 01:32:34;;;;;;;5.05;4.63;;;16.00;99.90;;;16.89;100.00;97946.75;5177201;28;20203;-79
2021/07/11 01:35:09;;;;;;;5.63;5.13;;;16.10;99.90;;;16.87;100.00;97945.81;5186487;28;20214;-78
2021/07/11 01:37:43;;;;;;;4.90;4.57;;;16.10;99.90;;;16.88;100.00;97940.72;5186231;28;20209;-79
2021/07/11 01:40:19;;;;;;;4.90;4.50;;;16.00;99.90;;;16.80;100.00;97938.69;5185476;28;20219;-78
2021/07/11 01:42:55;;;;;;;5.03;4.63;;;16.00;99.90;;;16.77;100.00;97941.13;5185293;28;20196;-79
2021/07/11 01:45:28;;;;;;;5.28;4.88;;;15.90;99.90;;;16.74;100.00;97941.00;5185568;28;20301;-79
2021/07/11 01:48:02;;;;;;;5.30;4.90;;;15.90;99.90;;;16.66;100.00;97949.38;5185241;28;20205;-79
2021/07/11 01:50:36;;;;;;;5.10;4.70;;;15.90;99.90;;;16.63;100.00;97943.25;5185757;28;20191;-79
2021/07/11 01:53:10;;;;;;;5.35;4.95;;;15.80;99.90;;;16.60;100.00;97946.59;5185959;28;20587;-79
2021/07/11 01:55:43;;;;;;;5.90;5.35;;;15.80;99.90;;;16.57;100.00;97943.03;5177308;28;20226;-79
2021/07/11 01:58:18;;;;;;;5.68;5.20;;;15.80;99.90;;;16.57;100.00;97948.19;5184999;28;20277;-79
2021/07/11 02:00:54;;;;;;;5.97;5.57;;;15.80;99.90;;;16.63;100.00;97949.28;5185098;28;20712;-80
2021/07/11 02:03:27;;;;;;;5.30;4.90;;;15.80;99.90;;;16.66;100.00;97944.22;5184293;28;20285;-78
2021/07/11 02:06:01;;;;;;;5.47;5.00;;;15.80;99.90;;;16.61;100.00;97950.91;5176865;28;20293;-79
2021/07/11 02:08:37;;;;;;;5.70;5.20;;;15.80;99.90;;;16.60;100.00;97951.75;5185649;28;20205;-79
2021/07/11 02:11:13;;;;;;;5.28;4.88;;;15.90;99.90;;;16.58;100.00;97945.66;5184913;28;20649;-79
2021/07/11 02:13:52;;;;;;;6.20;5.60;;;15.80;99.90;;;16.57;100.00;97951.66;5182831;28;20636;-79
2021/07/11 02:16:31;;;;;;;5.57;5.18;;;15.90;99.90;;;16.62;100.00;97944.91;5185282;28;20214;-79
2021/07/11 02:19:05;;;;;;;5.57;5.10;;;15.90;99.90;;;16.62;100.00;97944.03;5177174;28;20195;-79
2021/07/11 02:21:40;;;;;;;5.93;5.43;;;15.90;99.90;;;16.65;100.00;97951.91;5185459;28;20217;-78
2021/07/11 02:24:14;;;;;;;6.00;5.50;;;16.00;99.90;;;16.74;100.00;97956.50;5177526;28;20186;-79
2021/07/11 02:26:47;;;;;;;5.72;5.30;;;15.90;99.90;;;16.70;100.00;97955.53;5184346;28;20224;-79
2021/07/11 02:29:27;;;;;;;5.78;5.38;;;15.90;99.90;;;16.65;100.00;97954.47;5185248;28;20194;-79
2021/07/11 02:32:03;;;;;;;5.78;5.30;;;15.80;99.90;;;16.59;100.00;97957.72;5184927;28;20214;-78
2021/07/11 02:34:36;;;;;;;5.63;5.22;;;15.80;99.90;;;16.60;100.00;97956.91;5185600;28;20285;-79
2021/07/11 02:37:12;;;;;;;6.15;5.60;;;15.90;99.90;;;16.57;100.00;97959.38;5184270;28;20225;-79
2021/07/11 02:39:51;;;;;;;5.25;4.90;;;15.90;99.90;;;16.63;100.00;97959.59;5180114;28;20195;-79
2021/07/11 02:42:24;;;;;;;5.70;5.20;;;15.90;99.90;;;16.58;100.00;97943.06;5184794;28;20225;-79
2021/07/11 02:44:59;;;;;;;5.45;5.05;;;15.80;99.90;;;16.56;100.00;97949.88;5183873;28;20199;-79
2021/07/11 02:47:33;;;;;;;5.80;5.40;;;15.80;99.90;;;16.54;100.00;97943.81;5185199;28;20690;-79
2021/07/11 02:50:13;;;;;;;5.72;5.10;;;15.80;99.90;;;16.57;100.00;97948.19;5184474;28;20198;-79
2021/07/11 02:52:46;;;;;;;6.18;5.68;;;15.80;99.90;;;16.61;100.00;97955.22;5185778;28;20230;-80
2021/07/11 02:55:22;;;;;;;6.20;5.70;;;15.90;99.90;;;16.69;100.00;97952.91;5177680;28;20222;-78
2021/07/11 02:58:02;;;;;;;5.68;5.28;;;15.90;99.90;;;16.69;100.00;97948.63;5185089;28;20209;-78
2021/07/11 03:00:37;;;;;;;6.28;5.78;;;15.80;99.90;;;16.71;100.00;97957.28;5185346;28;20665;-79
2021/07/11 03:03:12;;;;;;;5.90;5.45;;;15.90;99.90;;;16.68;100.00;97957.16;5185083;28;20285;-78
2021/07/11 03:05:45;;;;;;;5.72;5.22;;;15.90;99.90;;;16.62;100.00;97957.81;5185621;28;20226;-78
2021/07/11 03:08:18;;;;;;;5.88;5.47;;;15.90;99.90;;;16.64;100.00;97956.19;5185709;28;20676;-79
2021/07/11 03:10:52;;;;;;;6.20;5.70;;;15.70;99.90;;;16.68;100.00;97952.00;5185266;28;20203;-80
2021/07/11 03:13:27;;;;;;;5.82;5.32;;;15.80;99.90;;;16.65;100.00;97952.81;5178411;28;20712;-80
2021/07/11 03:16:02;;;;;;;5.88;5.47;;;15.80;99.90;;;16.69;100.00;97955.47;5184704;28;20696;-79
2021/07/11 03:18:37;;;;;;;5.38;4.95;;;15.90;99.90;;;16.62;100.00;97952.66;5184661;28;20204;-79
2021/07/11 03:21:12;;;;;;;6.03;5.55;;;15.80;99.90;;;16.65;100.00;97952.81;5183414;28;20222;-79
2021/07/11 03:23:49;;;;;;;5.97;5.47;;;15.90;99.90;;;16.65;100.00;97952.81;5185655;28;20212;-79
2021/07/11 03:26:23;;;;;;;7.13;6.50;;;15.90;99.90;;;16.67;100.00;97960.56;5184380;28;20225;-80
2021/07/11 03:28:58;;;;;;;5.97;5.45;;;15.90;99.90;;;16.72;100.00;97958.16;5174465;28;20237;-79
2021/07/11 03:31:33;;;;;;;5.60;5.07;;;16.00;99.90;;;16.72;100.00;97963.34;5177561;28;20199;-79
2021/07/11 03:34:06;;;;;;;7.63;5.70;;;15.90;99.90;;;16.75;100.00;97959.13;5186577;28;20613;-79
2021/07/11 03:36:40;;;;;;;5.18;4.88;;;15.90;99.90;;;16.73;100.00;97957.34;5185003;28;20302;-80
2021/07/11 03:39:13;;;;;;;5.30;4.85;;;15.80;99.90;;;16.66;100.00;97954.53;5185158;28;20684;-80
2021/07/11 03:41:48;;;;;;;5.22;4.82;;;15.80;99.90;;;16.63;100.00;97954.44;5184639;28;20222;-78
2021/07/11 03:44:23;;;;;;;5.18;4.88;;;15.80;99.90;;;16.56;100.00;97960.19;5184780;28;20551;-78
2021/07/11 03:46:59;;;;;;;5.68;5.18;;;15.70;99.90;;;16.57;100.00;97959.38;5184603;28;20229;-78
2021/07/11 03:49:33;;;;;;;5.25;4.88;;;15.80;99.90;;;16.67;100.00;97969.19;5180403;28;20875;-80
2021/07/11 03:52:08;;;;;;;5.40;5.00;;;15.80;99.90;;;16.64;100.00;97966.50;5188964;28;20194;-79
2021/07/11 03:54:42;;;;;;;5.13;4.72;;;15.60;99.90;;;16.64;100.00;97966.50;5188795;28;20210;-79
2021/07/11 03:57:18;;;;;;;4.88;4.57;;;15.70;99.90;;;16.54;100.00;97969.59;5188546;28;20681;-80
2021/07/11 03:59:52;;;;;;;5.50;4.72;;;15.60;99.90;;;16.57;100.00;97966.25;5189030;28;20202;-79
2021/07/11 04:02:32;;;;;;;5.28;4.78;;;15.70;99.90;;;16.55;100.00;97966.19;5182219;28;20222;-80
2021/07/11 04:05:07;;;;;;;5.45;5.00;;;15.70;99.90;;;16.59;100.00;97978.38;5177031;28;20305;-80
2021/07/11 04:07:43;;;;;;;5.38;4.97;;;15.70;99.90;;;16.61;100.00;97974.16;5181772;28;20194;-80
2021/07/11 04:10:16;;;;;;;6.15;5.55;;;15.70;99.90;;;16.63;100.00;97969.06;5189193;28;20206;-80
2021/07/11 04:12:49;;;;;;;5.40;4.90;;;15.80;99.90;;;16.69;100.00;97971.84;5188854;28;20553;-79
2021/07/11 04:15:23;;;;;;;5.47;5.10;;;15.80;99.90;;;16.73;100.00;97967.66;5182995;28;20218;-80
2021/07/11 04:18:04;;;;;;;5.38;4.88;;;15.90;99.90;;;16.76;100.00;97975.50;5188704;28;20206;-80
2021/07/11 04:20:38;;;;;;;5.78;4.70;;;15.90;99.90;;;16.75;100.00;97972.06;5188187;28;20217;-79
2021/07/11 04:23:12;;;;;;;4.97;4.55;;;15.80;99.90;;;16.75;100.00;97969.47;5188992;28;20225;-78
2021/07/11 04:25:45;;;;;;;5.90;5.45;;;15.90;99.90;;;16.80;100.00;97972.25;5188237;28;20221;-79
2021/07/11 04:28:19;;;;;;;5.78;5.28;;;15.90;99.90;;;16.83;100.00;97977.53;5188712;28;20254;-79
2021/07/11 04:30:53;;;;;;;5.32;4.82;;;16.00;99.90;;;16.83;100.00;97968.06;5181390;28;20194;-79
2021/07/11 04:33:28;;;;;;;5.85;4.90;;;16.00;99.90;;;16.85;100.00;97976.75;5189013;28;20214;-79
2021/07/11 04:36:07;;;;;;;5.35;4.85;;;16.00;99.90;;;16.86;100.00;97970.75;5184470;28;20704;-79
2021/07/11 04:38:40;;;;;;;5.20;4.80;;;15.90;99.90;;;16.87;100.00;97974.19;5189280;28;20277;-80
2021/07/11 04:41:13;;;;;;;5.10;4.70;;;15.90;99.90;;;16.93;100.00;97969.25;5182769;28;20213;-80
2021/07/11 04:43:46;;;;;;;5.90;5.30;;;15.90;99.90;;;16.92;100.00;97972.66;5186809;28;20194;-79
2021/07/11 04:46:19;;;;;;;5.20;4.70;;;15.90;99.90;;;16.93;100.00;97974.41;5186264;28;20225;-79
2021/07/11 04:48:54;;;;;;;5.15;4.75;;;15.90;99.90;;;16.90;100.00;97969.13;5188826;28;20735;-79
2021/07/11 04:51:27;;;;;;;5.32;4.85;;;15.90;99.90;;;16.92;100.00;97971.78;5183690;28;20201;-79
2021/07/11 04:54:01;;;;;;;5.43;4.93;;;16.00;99.90;;;16.91;100.00;97964.84;5189177;28;20291;-79
2021/07/11 04:56:35;;;;;;;5.72;5.13;;;16.00;99.90;;;16.93;100.00;97970.94;5188083;28;20245;-78
2021/07/11 04:59:08;;;;;;;5.38;4.95;;;16.00;99.90;;;16.89;100.00;97972.56;5188834;28;20195;-78
2021/07/11 05:01:41;;;;;;;5.68;5.28;;;16.00;99.90;;;16.94;100.00;97972.69;5185634;28;20594;-79
2021/07/11 05:04:16;;;;;;;5.00;4.65;;;16.00;99.90;;;16.98;100.00;97974.56;5189369;28;20283;-79
2021/07/11 05:06:49;;;;;;;4.93;4.53;;;16.10;99.90;;;17.01;100.00;97972.09;5188784;28;20221;-78
2021/07/11 05:09:22;;;;;;;5.43;4.88;;;16.10;99.90;;;17.07;100.00;97987.78;5188876;28;20198;-79
2021/07/11 05:11:55;;;;;;;5.10;4.70;;;16.20;99.90;;;17.11;100.00;97980.22;5178380;28;20199;-79
2021/07/11 05:14:28;;;;;;;6.93;4.85;;;16.20;99.90;;;17.10;100.00;97973.25;5187920;28;20199;-78
2021/07/11 05:17:01;;;;;;;5.90;4.85;;;16.20;99.90;;;17.10;100.00;97975.84;5189854;28;20214;-79
2021/07/11 05:19:36;;;;;;;5.22;4.85;;;16.10;99.90;;;17.11;100.00;97979.31;5188770;28;20197;-78
2021/07/11 05:22:09;;;;;;;4.85;4.45;;;16.20;99.90;;;17.14;100.00;97973.38;5187816;28;20324;-79
2021/07/11 05:24:42;;;;;;;4.40;4.10;;;16.10;99.90;;;17.13;100.00;97981.94;5187418;28;20203;-79
2021/07/11 05:27:16;;;;;;;5.10;4.70;;;16.10;99.90;;;17.13;100.00;97981.94;5188205;28;20286;-79
2021/07/11 05:29:50;;;;;;;4.88;4.53;;;16.10;99.90;;;17.13;100.00;97988.00;5188768;28;20199;-79
2021/07/11 05:32:23;;;;;;;5.10;4.68;;;16.10;99.90;;;17.17;100.00;97973.47;5185986;28;20201;-79
2021/07/11 05:34:57;;;;;;;5.05;4.65;;;16.20;99.90;;;17.26;100.00;97971.19;5187287;28;20202;-79
2021/07/11 05:37:30;;;;;;;5.00;4.60;;;16.20;99.90;;;17.35;100.00;97976.66;5181329;28;20199;-79
2021/07/11 05:40:06;;;;;;;4.72;4.43;;;16.30;99.90;;;17.44;100.00;97978.66;5181813;28;20208;-78
2021/07/11 05:42:39;;;;;;;4.82;4.43;;;16.30;99.90;;;17.51;100.00;97981.50;5180914;28;20765;-79
2021/07/11 05:45:13;;;;;;;5.00;4.60;;;16.40;99.90;;;17.60;100.00;97977.41;5188726;28;20241;-78
2021/07/11 05:47:47;;;;;;;4.80;4.40;;;16.40;99.90;;;17.63;100.00;97975.84;5187939;28;20564;-79
2021/07/11 05:50:21;;;;;;;4.53;4.22;;;16.40;99.90;;;17.71;100.00;97984.72;5186186;28;20550;-78
2021/07/11 05:52:54;;;;;;;4.50;4.15;;;16.40;99.90;;;17.72;100.00;97980.41;5184053;28;20186;-79
2021/07/11 05:55:28;;;;;;;4.20;3.97;;;16.40;99.90;;;17.76;100.00;97982.25;5188000;28;20214;-79
2021/07/11 05:58:01;;;;;;;4.28;3.85;;;16.40;99.90;;;17.77;100.00;97990.06;5187285;28;20199;-79
2021/07/11 06:00:34;;;;;;;4.30;4.00;;;16.50;99.90;;;17.84;100.00;97996.31;5186226;28;20205;-80
2021/07/11 06:03:07;;;;;;;3.92;3.63;;;16.50;99.90;;;17.84;100.00;98003.22;5182971;28;20219;-79
2021/07/11 06:05:43;;;;;;;4.40;4.05;;;16.60;99.90;;;17.78;100.00;98003.91;5187737;28;20642;-79
2021/07/11 06:08:16;;;;;;;4.93;4.53;;;16.50;99.90;;;17.85;100.00;98013.59;5187621;28;20199;-79
2021/07/11 06:10:53;;;;;;;4.28;3.90;;;16.50;99.90;;;17.81;100.00;98006.56;5186539;28;20211;-79
2021/07/11 06:13:26;;;;;;;4.43;3.97;;;16.40;99.90;;;17.81;100.00;98011.75;5179636;28;20226;-79
2021/07/11 06:15:59;;;;;;;4.97;4.28;;;16.50;99.90;;;17.79;100.00;98016.00;5187473;28;20222;-81
2021/07/11 06:18:32;;;;;;;4.18;3.78;;;16.40;99.90;;;17.83;100.00;98017.84;5187611;28;20202;-79
2021/07/11 06:21:06;;;;;;;4.25;3.92;;;16.50;99.90;;;17.81;100.00;98016.91;5185763;28;20221;-79
2021/07/11 06:23:39;;;;;;;7.28;4.10;;;16.50;99.90;;;17.86;100.00;98017.06;5185686;28;20301;-79
2021/07/11 06:26:13;;;;;;;4.25;3.85;;;16.50;99.90;;;17.80;100.00;98007.41;5175654;28;20690;-80
2021/07/11 06:28:46;;;;;;;4.18;3.92;;;16.60;99.90;;;17.84;100.00;98022.19;5186198;28;20198;-80
2021/07/11 06:31:19;;;;;;;4.00;3.75;;;16.60;99.90;;;17.79;100.00;98023.75;5181660;28;20210;-80
2021/07/11 06:33:52;;;;;;;4.25;3.88;;;16.50;99.90;;;17.82;100.00;98020.38;5177237;28;20621;-79
2021/07/11 06:36:27;;;;;;;3.90;3.63;;;16.60;99.90;;;17.84;100.00;98017.00;5180231;28;20311;-80
2021/07/11 06:39:04;;;;;;;4.45;4.15;;;16.60;99.90;;;17.85;100.00;98023.06;5183656;28;20281;-79
2021/07/11 06:41:37;;;;;;;4.10;3.80;;;16.60;99.90;;;17.89;100.00;98025.81;5184473;28;20202;-79
2021/07/11 06:44:10;;;;;;;4.72;4.32;;;16.50;99.90;;;17.85;100.00;98023.06;5184532;28;20427;-80
2021/07/11 06:46:43;;;;;;;4.80;4.38;;;16.50;99.90;;;17.84;100.00;98026.50;5178371;28;20724;-79
2021/07/11 06:49:16;;;;;;;4.38;4.07;;;16.60;99.90;;;17.91;100.00;98024.16;5184771;28;20191;-80
2021/07/11 06:51:50;;;;;;;4.28;3.88;;;16.60;99.90;;;18.05;100.00;98019.38;5178533;28;20199;-80
2021/07/11 06:54:23;;;;;;;4.72;4.00;;;16.70;99.90;;;18.27;100.00;98018.31;5185487;28;20193;-80
2021/07/11 06:56:56;;;;;;;4.15;3.88;;;16.90;99.90;;;18.47;100.00;98018.88;5184684;28;20310;-79
2021/07/11 06:59:29;;;;;;;5.20;4.30;;;17.00;99.90;;;18.67;100.00;98012.53;5181144;28;20209;-80
2021/07/11 07:02:03;;;;;;;4.80;4.32;;;17.20;99.90;;;18.85;100.00;98014.78;5180968;28;20640;-79
2021/07/11 07:04:36;;;;;;;4.25;3.95;;;17.30;99.90;;;19.05;99.88;98011.84;5175107;28;20261;-79
2021/07/11 07:07:10;;;;;;;4.28;3.97;;;17.30;99.90;;;19.10;100.00;98011.13;5177039;28;20219;-80
2021/07/11 07:09:43;;;;;;;4.60;4.20;;;17.40;99.90;;;19.12;97.79;98012.06;5180332;28;20677;-80
2021/07/11 07:12:17;;;;;;;3.72;3.42;;;17.30;99.90;;;19.22;98.76;98010.56;5184424;28;20198;-79
2021/07/11 07:14:50;;;;;;;4.28;3.88;;;17.40;99.90;;;19.17;97.39;98009.56;5182386;28;20203;-79
2021/07/11 07:17:23;;;;;;;3.90;3.60;;;17.40;99.90;;;19.20;97.20;98014.84;5181220;28;20195;-79
2021/07/11 07:19:56;;;;;;;3.85;3.58;;;17.40;99.90;;;19.22;97.41;98010.56;5186104;28;20229;-79
2021/07/11 07:22:30;;;;;;;3.72;3.53;;;17.40;99.90;;;19.27;97.51;98010.69;5188970;28;20205;-80
2021/07/11 07:25:05;;;;;;;4.00;3.65;;;17.50;99.90;;;19.36;97.91;98014.38;5190082;28;20309;-79
2021/07/11 07:27:39;;;;;;;3.88;3.58;;;17.60;99.90;;;19.48;97.37;98010.34;5188825;28;20325;-79
2021/07/11 07:30:15;;;;;;;3.95;3.63;;;17.60;99.90;;;19.53;97.30;98013.94;5188873;28;20199;-79
2021/07/11 07:32:49;;;;;;;3.80;3.58;;;17.70;99.90;;;19.49;95.52;98012.97;5190146;28;20254;-79
2021/07/11 07:35:22;;;;;;;3.92;3.40;;;17.70;99.90;;;19.60;95.89;98010.63;5190711;28;20221;-79
2021/07/11 07:37:57;;;;;;;4.10;3.80;;;17.80;99.90;;;19.78;94.05;98013.69;5184943;28;20203;-79
2021/07/11 07:40:30;;;;;;;4.18;3.80;;;17.90;99.90;;;20.02;90.29;98018.56;5187341;28;20293;-80
2021/07/11 07:43:04;;;;;;;4.25;3.90;;;18.10;99.90;;;20.11;89.51;98010.09;5192188;28;20609;-78
2021/07/11 07:45:37;;;;;;;3.90;3.63;;;18.20;99.90;;;20.45;90.57;98000.44;5188404;28;20218;-79
2021/07/11 07:48:10;;;;;;;3.75;3.55;;;18.40;99.90;;;20.56;87.71;97991.16;5189462;28;20207;-78
2021/07/11 07:50:43;;;;;;;4.45;3.42;;;18.50;99.90;;;20.91;87.60;97990.94;5183012;28;20192;-80
2021/07/11 07:53:19;;;;;;;4.30;3.55;;;18.80;99.90;;;20.90;83.83;98003.06;5183497;28;20206;-79
2021/07/11 07:55:52;;;;;;;3.72;3.42;;;18.80;99.90;;;20.83;78.01;97995.13;5174396;28;20228;-81
2021/07/11 07:58:25;;;;;;;4.25;3.65;;;19.00;99.90;;;20.90;80.85;98003.06;5184774;28;20563;-80
2021/07/11 08:00:59;;;;;;;3.65;3.35;;;19.00;99.90;;;21.21;82.43;98002.75;5179204;28;20225;-80
2021/07/11 08:03:32;;;;;;;3.50;3.20;;;19.30;99.90;;;22.07;79.89;98004.13;5182271;28;20218;-81
2021/07/11 08:06:05;;;;;;;3.20;3.00;;;20.00;99.90;;;22.94;72.82;98003.47;5187530;28;20226;-80
2021/07/11 08:08:40;;;;;;;3.17;2.88;;;20.60;99.90;;;23.68;69.13;97998.94;5186692;28;20248;-80
2021/07/11 08:11:13;;;;;;;3.63;3.10;;;21.40;99.90;;;24.17;64.89;97999.28;5187209;28;20206;-80
2021/07/11 08:13:46;;;;;;;3.03;2.83;;;22.10;99.90;;;24.28;67.02;98008.03;5182197;28;20195;-81
2021/07/11 08:16:21;;;;;;;3.30;3.00;;;22.00;99.90;;;23.65;62.91;98008.47;5188149;28;20305;-81
2021/07/11 08:18:54;;;;;;;2.88;2.67;;;21.40;99.90;;;23.14;69.25;98005.44;5187846;28;20252;-80
2021/07/11 08:21:29;;;;;;;2.85;2.65;;;21.00;99.90;;;22.66;66.89;98014.44;5179664;28;20205;-81
2021/07/11 08:24:04;;;;;;;3.20;2.97;;;20.70;99.90;;;22.38;73.51;98016.72;5188954;28;20222;-82
2021/07/11 08:26:37;;;;;;;3.28;3.08;;;20.40;99.90;;;22.42;77.07;98013.31;5188262;28;20337;-80
2021/07/11 08:29:10;;;;;;;2.88;2.67;;;20.60;99.90;;;22.37;71.27;98017.56;5184173;28;20215;-81
2021/07/11 08:31:43;;;;;;;2.80;2.60;;;20.70;99.90;;;22.52;71.19;98018.63;5183760;28;20677;-81
2021/07/11 08:34:17;;;;;;;3.25;3.00;;;21.00;99.90;;;22.85;66.95;98015.53;5186749;28;20670;-80
2021/07/11 08:36:52;;;;;;;2.88;2.60;;;21.60;99.90;;;23.27;71.23;98019.47;5182454;28;20756;-80
2021/07/11 08:39:28;;;;;;;3.25;2.40;;;22.10;99.90;;;23.43;64.61;98018.72;5186266;28;20237;-81
2021/07/11 08:42:01;;;;;;;2.95;2.75;;;22.50;99.90;;;23.67;67.31;98027.66;5188771;28;20231;-80
2021/07/11 08:44:34;;;;;;;2.90;2.63;;;22.60;99.90;;;23.75;64.29;98026.88;5176089;28;20218;-80
2021/07/11 08:47:07;;;;;;;2.78;2.58;;;22.80;99.90;;;23.98;65.61;98034.88;5189145;28;20222;-80
2021/07/11 08:49:40;;;;;;;2.90;2.70;;;22.90;99.90;;;24.08;63.30;98024.47;5182804;28;20202;-80
2021/07/11 08:52:14;;;;;;;2.90;2.70;;;22.90;99.90;;;24.01;62.21;98029.66;5187267;28;20197;-79
2021/07/11 08:54:48;;;;;;;2.97;2.78;;;23.00;99.90;;;23.93;62.60;98030.47;5186242;28;20199;-78
2021/07/11 08:57:21;;;;;;;2.65;2.40;;;22.90;99.90;;;23.74;63.43;98022.50;5182886;28;20214;-79
2021/07/11 08:59:54;;;;;;;2.90;2.70;;;22.70;99.90;;;23.70;64.12;98018.13;5187247;28;20217;-79
2021/07/11 09:02:27;;;;;;;3.25;2.95;;;22.40;99.90;;;23.75;62.46;98031.19;5186309;28;20414;-78
2021/07/11 09:05:00;;;;;;;2.78;2.63;;;22.40;99.90;;;23.23;58.67;98029.00;5186391;28;20207;-79
2021/07/11 09:07:33;;;;;;;3.28;3.08;;;22.00;99.90;;;22.98;63.26;98029.59;5183357;28;20203;-79
2021/07/11 09:10:09;;;;;;;3.20;3.00;;;21.50;99.90;;;22.79;65.94;98038.94;5186199;28;20203;-79
2021/07/11 09:12:54;;;;;;;3.13;2.92;;;21.20;99.90;;;22.48;67.01;98041.16;5186283;28;20695;-78
2021/07/11 09:15:31;;;;;;;3.00;2.80;;;21.00;99.90;;;22.20;67.55;98050.31;5183105;28;20217;-78
2021/07/11 09:18:05;;;;;;;2.80;2.60;;;20.80;99.90;;;22.20;66.50;98047.72;5186696;28;20206;-78
2021/07/11 09:20:55;;;;;;;2.75;2.55;;;20.60;99.90;;;21.97;68.88;98055.16;5188506;28;20202;-78
2021/07/11 09:23:31;;;;;;;3.65;3.03;;;20.40;99.90;;;21.76;71.41;98056.59;5185110;28;20209;-79
2021/07/11 09:26:09;;;;;;;3.25;3.00;;;20.30;99.90;;;21.78;71.21;98056.63;5184136;28;20222;-79
2021/07/11 09:28:48;;;;;;;3.15;2.95;;;20.20;99.90;;;21.61;71.27;98063.28;5184068;28;20213;-79
2021/07/11 09:31:23;;;;;;;3.03;2.83;;;20.10;99.90;;;21.39;68.42;98057.72;5178259;28;20289;-78
2021/07/11 09:33:59;;;;;;;2.88;2.67;;;19.90;99.90;;;21.20;70.92;98058.19;5186771;28;20256;-79
2021/07/11 09:36:32;;;;;;;3.17;2.97;;;19.90;99.90;;;21.19;73.79;98056.44;5177166;28;20303;-78
2021/07/11 09:39:05;;;;;;;2.95;2.75;;;19.90;99.90;;;21.22;73.79;98051.31;5171369;28;20204;-78
2021/07/11 09:41:40;;;;;;;2.70;2.50;;;19.90;99.90;;;21.32;73.74;98053.22;5180435;28;20203;-78
2021/07/11 09:44:16;;;;;;;3.63;2.70;;;19.90;99.90;;;21.46;67.66;98051.78;5186334;28;20198;-78
2021/07/11 09:46:49;;;;;;;2.80;2.60;;;20.10;99.90;;;21.59;68.21;98052.84;5186390;28;20309;-78
2021/07/11 09:49:22;;;;;;;2.92;2.72;;;20.10;99.90;;;21.73;67.98;98050.47;5187191;28;20195;-78
2021/07/11 09:51:57;;;;;;;2.95;2.75;;;20.30;99.90;;;21.90;68.72;98051.59;5189377;28;20205;-79
2021/07/11 09:54:30;;;;;;;2.78;2.58;;;20.50;99.90;;;22.05;68.04;98050.94;5184793;28;20221;-79
2021/07/11 09:57:10;;;;;;;2.60;2.50;;;20.70;99.90;;;22.31;65.23;98046.16;5184213;28;20228;-80
2021/07/11 09:59:43;;;;;;;2.67;2.47;;;21.00;99.90;;;22.58;66.09;98050.00;5178860;28;20213;-79
2021/07/11 10:02:17;;;;;;;4.22;3.53;;;21.30;99.90;;;22.84;63.50;98040.75;5180962;28;20202;-79
2021/07/11 10:04:51;;;;;;;3.42;3.00;;;21.50;99.90;;;23.21;60.95;98042.88;5176946;28;20224;-80
2021/07/11 10:07:24;;;;;;;2.80;2.60;;;21.80;99.90;;;23.51;59.65;98042.28;5176436;28;20221;-80
2021/07/11 10:09:57;;;;;;;3.78;2.60;;;22.00;99.90;;;23.34;58.31;98039.53;5177664;28;20282;-80
2021/07/11 10:12:31;;;;;;;2.40;2.20;;;21.80;99.90;;;23.46;59.28;98038.75;5185610;28;20575;-80
2021/07/11 10:15:11;;;;;;;2.70;2.50;;;21.80;99.90;;;23.45;59.76;98034.41;5184816;28;20220;-80
2021/07/11 10:17:48;;;;;;;2.47;2.28;;;21.90;99.90;;;23.54;58.44;98030.13;5187560;28;20202;-79
2021/07/11 10:20:23;;;;;;;2.40;2.30;;;22.00;99.90;;;23.70;57.37;98033.78;5178826;28;20198;-80
2021/07/11 10:22:56;;;;;;;2.38;2.28;;;22.00;99.90;;;23.83;57.61;98030.38;5189373;28;20261;-79
2021/07/11 10:25:32;;;;;;;2.50;2.30;;;22.10;99.90;;;23.74;57.75;98030.34;5189271;28;20691;-79
2021/07/11 10:28:10;;;;;;;2.33;2.17;;;22.10;99.90;;;23.87;56.56;98028.69;5186130;28;20210;-79
2021/07/11 10:30:45;;;;;;;2.50;2.30;;;21.90;99.90;;;23.49;58.29;98030.97;5182157;28;20620;-80
2021/07/11 10:33:24;;;;;;;2.40;2.20;;;21.90;99.90;;;23.46;58.64;98021.38;5176921;28;20286;-80
2021/07/11 10:36:00;;;;;;;2.22;2.10;;;21.90;99.90;;;23.37;59.41;98022.16;5177124;28;20225;-80
2021/07/11 10:38:38;;;;;;;2.50;2.30;;;21.90;99.90;;;23.32;59.51;98018.66;5177168;28;20206;-79
2021/07/11 10:41:14;;;;;;;2.60;2.40;;;21.80;99.90;;;23.46;58.77;98015.28;5177851;28;20203;-80
2021/07/11 10:44:03;;;;;;;2.42;2.20;;;21.80;99.90;;;23.25;59.09;98019.44;5182162;28;20254;-80
2021/07/11 10:46:41;;;;;;;2.65;2.45;;;21.90;99.90;;;23.32;59.88;98023.88;5184907;28;20329;-79